createdAt,value
2023-10-13T00:00:38.087Z,100.00
2023-10-13T00:03:16.525Z,100.00
2023-10-13T00:05:47.370Z,100.00
2023-10-13T00:08:18.932Z,100.00
2023-10-13T00:10:51.794Z,100.00
2023-10-13T00:13:22.783Z,100.00
2023-10-13T00:15:59.099Z,100.00
2023-10-13T00:18:34.651Z,100.00
2023-10-13T00:21:13.987Z,100.00
2023-10-13T00:23:54.054Z,100.00
2023-10-13T00:26:29.244Z,100.00
2023-10-13T00:29:18.197Z,100.00
2023-10-13T00:31:50.047Z,100.00
2023-10-13T00:34:26.802Z,100.00
2023-10-13T00:37:09.263Z,100.00
2023-10-13T00:39:41.971Z,100.00
2023-10-13T00:42:19.581Z,100.00
2023-10-13T00:44:50.207Z,100.00
2023-10-13T00:47:38.343Z,100.00
2023-10-13T00:50:06.978Z,100.00
2023-10-13T00:53:01.051Z,100.00
2023-10-13T00:55:28.524Z,100.00
2023-10-13T00:58:04.692Z,100.00
2023-10-13T01:00:32.327Z,100.00
2023-10-13T01:03:08.776Z,100.00
2023-10-13T01:05:39.320Z,100.00
2023-10-13T01:08:13.379Z,100.00
2023-10-13T01:10:43.096Z,100.00
2023-10-13T01:13:21.901Z,100.00
2023-10-13T01:15:49.740Z,100.00
2023-10-13T01:18:21.818Z,100.00
2023-10-13T01:20:53.701Z,100.00
2023-10-13T01:23:29.845Z,100.00
2023-10-13T01:25:57.784Z,100.00
2023-10-13T01:28:27.784Z,100.00
2023-10-13T01:30:55.074Z,100.00
2023-10-13T01:33:28.480Z,100.00
2023-10-13T01:35:59.963Z,100.00
2023-10-13T01:38:34.891Z,100.00
2023-10-13T01:41:06.037Z,100.00
2023-10-13T01:43:36.209Z,100.00
2023-10-13T01:46:05.003Z,100.00
2023-10-13T01:48:40.278Z,100.00
2023-10-13T01:51:11.176Z,100.00
2023-10-13T01:53:45.148Z,100.00
2023-10-13T01:56:12.594Z,100.00
2023-10-13T01:58:49.086Z,100.00
2023-10-13T02:01:27.918Z,100.00
2023-10-13T02:04:05.643Z,100.00
2023-10-13T02:06:34.026Z,100.00
2023-10-13T02:09:27.018Z,100.00
2023-10-13T02:11:55.793Z,100.00
2023-10-13T02:14:27.080Z,100.00
2023-10-13T02:17:12.984Z,100.00
2023-10-13T02:19:45.255Z,100.00
2023-10-13T02:22:13.560Z,100.00
2023-10-13T02:24:46.684Z,100.00
2023-10-13T02:27:15.217Z,100.00
2023-10-13T02:29:47.554Z,100.00
2023-10-13T02:35:09.051Z,100.00
2023-10-13T02:38:33.101Z,100.00
2023-10-13T02:41:30.178Z,100.00
2023-10-13T02:44:13.285Z,100.00
2023-10-13T02:46:41.573Z,100.00
2023-10-13T02:49:44.239Z,100.00
2023-10-13T02:52:39.434Z,100.00
2023-10-13T02:55:10.913Z,100.00
2023-10-13T02:57:43.343Z,100.00
2023-10-13T03:00:13.896Z,100.00
2023-10-13T03:02:46.407Z,100.00
2023-10-13T03:05:15.009Z,100.00
2023-10-13T03:07:46.003Z,100.00
2023-10-13T03:10:13.239Z,100.00
2023-10-13T03:12:49.625Z,100.00
2023-10-13T03:15:19.440Z,100.00
2023-10-13T03:17:50.088Z,100.00
2023-10-13T03:20:23.904Z,100.00
2023-10-13T03:22:56.921Z,100.00
2023-10-13T03:25:25.810Z,100.00
2023-10-13T03:28:06.447Z,100.00
2023-10-13T03:30:39.890Z,100.00
2023-10-13T03:33:13.168Z,100.00
2023-10-13T03:35:44.625Z,100.00
2023-10-13T03:38:28.615Z,100.00
2023-10-13T03:41:08.673Z,100.00
2023-10-13T03:43:53.221Z,100.00
2023-10-13T03:46:23.805Z,100.00
2023-10-13T03:49:00.817Z,100.00
2023-10-13T03:51:35.085Z,100.00
2023-10-13T03:54:09.414Z,100.00
2023-10-13T03:56:42.945Z,100.00
2023-10-13T03:59:22.138Z,100.00
2023-10-13T04:02:00.046Z,100.00
2023-10-13T04:04:50.134Z,100.00
2023-10-13T04:07:32.300Z,100.00
2023-10-13T04:10:14.349Z,100.00
2023-10-13T04:12:56.653Z,100.00
2023-10-13T04:15:38.225Z,100.00
2023-10-13T04:18:30.236Z,100.00
2023-10-13T04:21:20.160Z,100.00
2023-10-13T04:24:02.589Z,100.00
2023-10-13T04:26:44.148Z,100.00
2023-10-13T04:29:28.906Z,100.00
2023-10-13T04:32:14.850Z,100.00
2023-10-13T04:34:47.099Z,100.00
2023-10-13T04:37:30.580Z,100.00
2023-10-13T04:40:01.294Z,100.00
2023-10-13T04:42:51.016Z,100.00
2023-10-13T04:45:45.675Z,100.00
2023-10-13T04:48:19.404Z,100.00
2023-10-13T04:50:51.797Z,100.00
2023-10-13T04:53:31.073Z,100.00
2023-10-13T04:56:31.825Z,100.00
2023-10-13T04:59:14.016Z,100.00
2023-10-13T05:02:14.035Z,100.00
2023-10-13T05:05:00.433Z,100.00
2023-10-13T05:07:42.893Z,100.00
2023-10-13T05:10:25.400Z,100.00
2023-10-13T05:13:07.745Z,100.00
2023-10-13T05:15:49.966Z,100.00
2023-10-13T05:18:32.190Z,100.00
2023-10-13T05:21:17.037Z,100.00
2023-10-13T05:26:59.942Z,100.00
2023-10-13T05:29:42.239Z,100.00
2023-10-13T05:32:24.620Z,100.00
2023-10-13T05:35:06.906Z,100.00
2023-10-13T05:37:51.804Z,100.00
2023-10-13T05:40:34.181Z,100.00
2023-10-13T05:43:16.461Z,100.00
2023-10-13T05:45:58.607Z,100.00
2023-10-13T05:48:43.204Z,100.00
2023-10-13T05:51:25.541Z,100.00
2023-10-13T05:54:10.375Z,100.00
2023-10-13T05:56:52.688Z,100.00
2023-10-13T05:59:35.003Z,100.00
2023-10-13T06:02:17.301Z,100.00
2023-10-13T06:04:59.836Z,100.00
2023-10-13T06:07:42.365Z,100.00
2023-10-13T06:10:27.328Z,100.00
2023-10-13T06:13:09.611Z,100.00
2023-10-13T06:15:52.845Z,100.00
2023-10-13T06:18:35.052Z,100.00
2023-10-13T06:21:17.856Z,100.00
2023-10-13T06:24:00.101Z,100.00
2023-10-13T06:26:45.057Z,100.00
2023-10-13T06:29:21.851Z,100.00
2023-10-13T06:31:52.176Z,100.00
2023-10-13T06:34:29.530Z,100.00
2023-10-13T06:36:59.829Z,100.00
2023-10-13T06:39:42.775Z,100.00
2023-10-13T06:42:14.993Z,100.00
2023-10-13T06:44:46.947Z,100.00
2023-10-13T06:47:16.887Z,100.00
2023-10-13T06:49:47.213Z,100.00
2023-10-13T06:52:17.445Z,100.00
2023-10-13T06:54:47.689Z,100.00
2023-10-13T06:57:21.804Z,100.00
2023-10-13T06:59:54.582Z,100.00
2023-10-13T07:02:28.762Z,100.00
2023-10-13T07:05:09.430Z,100.00
2023-10-13T07:07:40.309Z,100.00
2023-10-13T07:10:13.139Z,100.00
2023-10-13T07:12:45.829Z,100.00
2023-10-13T07:15:20.907Z,100.00
2023-10-13T07:17:56.264Z,100.00
2023-10-13T07:20:35.160Z,100.00
2023-10-13T07:23:07.644Z,100.00
2023-10-13T07:25:38.905Z,100.00
2023-10-13T07:28:12.135Z,100.00
2023-10-13T07:30:50.898Z,100.00
2023-10-13T07:33:21.532Z,100.00
2023-10-13T07:35:53.341Z,100.00
2023-10-13T07:38:23.737Z,100.00
2023-10-13T07:40:54.971Z,100.00
2023-10-13T07:43:28.836Z,100.00
2023-10-13T07:46:00.105Z,100.00
2023-10-13T07:48:29.961Z,100.00
2023-10-13T07:51:05.132Z,100.00
2023-10-13T07:53:41.381Z,100.00
2023-10-13T07:56:13.229Z,100.00
2023-10-13T07:58:54.244Z,100.00
2023-10-13T08:01:24.255Z,100.00
2023-10-13T08:04:06.080Z,100.00
2023-10-13T08:06:38.035Z,100.00
2023-10-13T08:09:30.088Z,100.00
2023-10-13T08:12:01.335Z,100.00
2023-10-13T08:14:38.905Z,100.00
2023-10-13T08:17:13.876Z,100.00
2023-10-13T08:19:46.249Z,100.00
2023-10-13T08:22:37.498Z,100.00
2023-10-13T08:25:26.500Z,100.00
2023-10-13T08:28:11.360Z,100.00
2023-10-13T08:30:53.825Z,100.00
2023-10-13T08:33:27.505Z,100.00
2023-10-13T08:36:19.725Z,100.00
2023-10-13T08:38:56.735Z,100.00
2023-10-13T08:41:30.857Z,100.00
2023-10-13T08:44:07.559Z,100.00
2023-10-13T08:46:52.186Z,100.00
2023-10-13T08:49:24.850Z,100.00
2023-10-13T08:52:06.872Z,100.00
2023-10-13T08:54:35.732Z,100.00
2023-10-13T08:57:19.136Z,100.00
2023-10-13T08:59:54.274Z,100.00
2023-10-13T09:02:52.320Z,100.00
2023-10-13T09:05:34.746Z,100.00
2023-10-13T09:08:11.145Z,100.00
2023-10-13T09:10:46.423Z,100.00
2023-10-13T09:13:22.421Z,100.00
2023-10-13T09:16:04.796Z,100.00
2023-10-13T09:18:49.709Z,100.00
2023-10-13T09:21:32.332Z,100.00
2023-10-13T09:24:14.318Z,100.00
2023-10-13T09:26:44.280Z,100.00
2023-10-13T09:29:23.568Z,100.00
2023-10-13T09:32:01.588Z,100.00
2023-10-13T09:34:36.242Z,100.00
2023-10-13T09:37:05.501Z,100.00
2023-10-13T09:39:46.359Z,100.00
2023-10-13T09:42:17.568Z,100.00
2023-10-13T09:44:52.925Z,100.00
2023-10-13T09:47:32.486Z,100.00
2023-10-13T09:50:15.550Z,100.00
2023-10-13T09:52:43.365Z,100.00
2023-10-13T09:55:19.852Z,100.00
2023-10-13T09:57:58.933Z,100.00
2023-10-13T10:00:47.669Z,100.00
2023-10-13T10:03:33.080Z,100.00
2023-10-13T10:06:17.128Z,100.00
2023-10-13T10:08:49.866Z,100.00
2023-10-13T10:11:32.408Z,100.00
2023-10-13T10:14:10.166Z,100.00
2023-10-13T10:16:55.923Z,100.00
2023-10-13T10:19:25.892Z,100.00
2023-10-13T10:22:06.622Z,100.00
2023-10-13T10:24:37.978Z,100.00
2023-10-13T10:27:08.169Z,100.00
2023-10-13T10:29:38.008Z,100.00
2023-10-13T10:32:17.099Z,100.00
2023-10-13T10:34:47.003Z,100.00
2023-10-13T10:37:19.873Z,100.00
2023-10-13T10:39:51.218Z,100.00
2023-10-13T10:42:24.897Z,100.00
2023-10-13T10:45:06.629Z,100.00
2023-10-13T10:47:38.681Z,100.00
2023-10-13T10:50:20.806Z,100.00
2023-10-13T10:52:58.865Z,100.00
2023-10-13T10:55:30.576Z,100.00
2023-10-13T10:58:07.120Z,100.00
2023-10-13T11:00:47.735Z,100.00
2023-10-13T11:03:18.717Z,100.00
2023-10-13T11:05:50.241Z,100.00
2023-10-13T11:08:32.884Z,100.00
2023-10-13T11:11:06.786Z,100.00
2023-10-13T11:13:52.472Z,100.00
2023-10-13T11:16:35.758Z,100.00
2023-10-13T11:19:06.702Z,100.00
2023-10-13T11:21:38.954Z,100.00
2023-10-13T11:24:13.128Z,100.00
2023-10-13T11:26:50.881Z,100.00
2023-10-13T11:29:23.867Z,100.00
2023-10-13T11:31:59.932Z,100.00
2023-10-13T11:34:41.448Z,100.00
2023-10-13T11:37:24.002Z,100.00
2023-10-13T11:39:58.789Z,100.00
2023-10-13T11:42:30.099Z,100.00
2023-10-13T11:45:18.185Z,100.00
2023-10-13T11:48:00.503Z,100.00
2023-10-13T11:50:36.966Z,100.00
2023-10-13T11:53:09.634Z,100.00
2023-10-13T11:55:42.498Z,100.00
2023-10-13T11:58:18.800Z,100.00
2023-10-13T12:01:03.958Z,100.00
2023-10-13T12:03:46.376Z,100.00
2023-10-13T12:06:34.604Z,100.00
2023-10-13T12:09:30.671Z,100.00
2023-10-13T12:12:05.803Z,100.00
2023-10-13T12:14:39.196Z,100.00
2023-10-13T12:17:12.241Z,100.00
2023-10-13T12:19:52.523Z,100.00
2023-10-13T12:22:28.371Z,100.00
2023-10-13T12:24:58.707Z,100.00
2023-10-13T12:27:47.029Z,100.00
2023-10-13T12:30:23.795Z,100.00
2023-10-13T12:33:07.832Z,100.00
2023-10-13T12:35:46.731Z,100.00
2023-10-13T12:38:38.724Z,100.00
2023-10-13T12:41:34.580Z,100.00
2023-10-13T12:44:24.871Z,100.00
2023-10-13T12:50:27.533Z,100.00
2023-10-13T12:53:05.728Z,99.67
2023-10-13T12:55:54.869Z,100.00
2023-10-13T12:58:29.734Z,99.00
2023-10-13T13:01:13.222Z,98.87
2023-10-13T13:03:46.796Z,98.54
2023-10-13T13:06:31.832Z,96.77
2023-10-13T13:09:10.852Z,96.60
2023-10-13T13:11:41.381Z,95.96
2023-10-13T13:14:13.399Z,95.03
2023-10-13T13:16:54.373Z,94.19
2023-10-13T13:22:28.186Z,93.13
2023-10-13T13:24:58.796Z,92.46
2023-10-13T13:27:39.493Z,92.91
2023-10-13T13:30:23.715Z,91.32
2023-10-13T13:33:08.528Z,92.07
2023-10-13T13:35:42.124Z,92.76
2023-10-13T13:38:28.379Z,92.65
2023-10-13T13:41:00.605Z,92.27
2023-10-13T13:43:58.014Z,93.55
2023-10-13T13:46:34.602Z,90.97
2023-10-13T13:49:08.795Z,91.82
2023-10-13T13:51:39.429Z,92.79
2023-10-13T13:54:10.484Z,91.51
2023-10-13T13:56:42.236Z,93.70
2023-10-13T13:59:19.978Z,95.62
2023-10-13T14:01:50.625Z,96.44
2023-10-13T14:04:23.169Z,95.96
2023-10-13T14:07:37.653Z,96.35
2023-10-13T14:10:20.209Z,96.06
2023-10-13T14:13:14.718Z,96.24
2023-10-13T14:15:45.379Z,96.01
2023-10-13T14:18:30.165Z,95.08
2023-10-13T14:21:25.830Z,95.41
2023-10-13T14:24:02.004Z,93.39
2023-10-13T14:26:32.803Z,92.75
2023-10-13T14:29:07.099Z,88.90
2023-10-13T14:31:38.436Z,89.14
2023-10-13T14:34:08.699Z,86.89
2023-10-13T14:36:41.366Z,87.61
2023-10-13T14:39:12.889Z,85.54
2023-10-13T14:41:51.878Z,85.32
2023-10-13T14:44:26.432Z,84.48
2023-10-13T14:46:56.968Z,84.10
2023-10-13T14:49:44.527Z,82.02
2023-10-13T14:52:20.316Z,82.36
2023-10-13T14:54:56.544Z,82.65
2023-10-13T14:57:28.706Z,81.73
2023-10-13T14:59:59.744Z,82.01
2023-10-13T15:02:29.689Z,81.47
2023-10-13T15:05:04.084Z,82.41
2023-10-13T15:07:38.066Z,82.19
2023-10-13T15:10:16.142Z,81.70
2023-10-13T15:19:21.871Z,81.00
2023-10-13T15:21:58.032Z,82.37
2023-10-13T15:24:46.782Z,81.17
2023-10-13T15:30:21.413Z,83.05
2023-10-13T15:32:55.382Z,82.61
2023-10-13T15:35:34.895Z,82.96
2023-10-13T15:38:14.073Z,82.72
2023-10-13T15:40:57.960Z,79.79
2023-10-13T15:43:54.115Z,81.95
2023-10-13T15:48:04.022Z,81.95
2023-10-13T15:49:58.666Z,82.90
2023-10-13T15:52:33.184Z,84.30
2023-10-13T15:55:23.218Z,83.96
2023-10-13T15:58:12.899Z,83.19
2023-10-13T16:01:14.812Z,84.04
2023-10-13T16:04:02.516Z,85.44
2023-10-13T16:06:43.912Z,85.17
2023-10-13T16:12:29.054Z,88.28
2023-10-13T16:15:42.137Z,87.32
2023-10-13T16:18:35.660Z,88.73
2023-10-13T16:21:26.278Z,88.61
2023-10-13T16:24:37.657Z,87.71
2023-10-13T16:27:27.788Z,89.04
2023-10-13T16:30:39.931Z,88.39
2023-10-13T16:36:23.694Z,91.40
2023-10-13T16:39:10.660Z,91.27
2023-10-13T16:41:54.382Z,90.74
2023-10-13T16:44:29.207Z,92.15
2023-10-13T16:47:21.464Z,92.87
2023-10-13T16:50:30.567Z,93.87
2023-10-13T16:53:11.682Z,94.08
2023-10-13T16:56:18.794Z,92.63
2023-10-13T16:59:09.553Z,92.34
2023-10-13T17:01:39.929Z,91.46
2023-10-13T17:04:38.236Z,90.71
2023-10-13T17:07:53.947Z,91.85
2023-10-13T17:13:42.076Z,92.08
2023-10-13T17:19:55.839Z,90.75
2023-10-13T17:22:57.783Z,90.15
2023-10-13T17:28:59.133Z,89.18
2023-10-13T17:31:57.217Z,88.68
2023-10-13T17:34:59.491Z,86.59
2023-10-13T17:41:25.681Z,84.83
2023-10-13T17:43:57.324Z,83.65
2023-10-13T17:46:27.394Z,83.44
2023-10-13T17:48:58.080Z,83.90
2023-10-13T17:51:31.016Z,84.76
2023-10-13T17:54:01.200Z,85.59
2023-10-13T17:56:32.165Z,85.10
2023-10-13T17:59:02.098Z,85.85
2023-10-13T18:01:33.402Z,86.43
2023-10-13T18:04:06.223Z,87.58
2023-10-13T18:06:39.568Z,88.29
2023-10-13T18:09:12.633Z,89.73
2023-10-13T18:11:44.137Z,91.00
2023-10-13T18:14:17.204Z,90.82
2023-10-13T18:16:50.911Z,91.31
2023-10-13T18:19:22.260Z,91.38
2023-10-13T18:21:56.217Z,92.17
2023-10-13T18:24:28.335Z,90.65
2023-10-13T18:26:58.666Z,90.77
2023-10-13T18:29:28.857Z,91.39
2023-10-13T18:32:00.469Z,92.56
2023-10-13T18:34:30.342Z,92.58
2023-10-13T18:37:03.928Z,93.25
2023-10-13T18:39:37.988Z,94.34
2023-10-13T18:42:08.874Z,95.17
2023-10-13T18:44:39.072Z,95.44
2023-10-13T18:47:09.679Z,96.31
2023-10-13T18:49:40.189Z,97.19
2023-10-13T18:52:12.581Z,97.81
2023-10-13T18:54:42.859Z,97.62
2023-10-13T18:57:15.282Z,97.96
2023-10-13T18:59:45.179Z,98.12
2023-10-13T19:02:15.204Z,98.44
2023-10-13T19:04:45.041Z,98.60
2023-10-13T19:07:17.484Z,98.94
2023-10-13T19:09:48.257Z,99.65
2023-10-13T19:12:23.900Z,99.47
2023-10-13T19:14:54.197Z,98.94
2023-10-13T19:17:24.670Z,99.19
2023-10-13T19:19:54.743Z,99.19
2023-10-13T19:22:27.558Z,98.44
2023-10-13T19:24:58.176Z,97.63
2023-10-13T19:27:28.779Z,96.37
2023-10-13T19:29:59.010Z,94.24
2023-10-13T19:32:29.023Z,91.23
2023-10-13T19:34:58.948Z,92.52
2023-10-13T19:37:31.533Z,90.74
2023-10-13T19:40:01.926Z,90.85
2023-10-13T19:42:32.039Z,88.16
2023-10-13T19:45:04.225Z,89.41
2023-10-13T19:47:34.587Z,87.46
2023-10-13T19:50:04.605Z,87.50
2023-10-13T19:52:37.015Z,88.15
2023-10-13T19:55:07.381Z,87.49
2023-10-13T19:57:37.900Z,88.17
2023-10-13T20:00:10.137Z,89.13
2023-10-13T20:02:43.747Z,91.05
2023-10-13T20:05:18.997Z,92.62
2023-10-13T20:07:51.770Z,94.55
2023-10-13T20:10:22.800Z,95.91
2023-10-13T20:12:53.083Z,97.88
2023-10-13T20:15:22.829Z,98.91
2023-10-13T20:17:52.772Z,100.00
2023-10-13T20:20:28.240Z,100.00
2023-10-13T20:23:01.079Z,100.00
2023-10-13T20:25:30.967Z,100.00
2023-10-13T20:28:02.158Z,100.00
2023-10-13T20:30:34.809Z,100.00
2023-10-13T20:33:10.715Z,100.00
2023-10-13T20:35:42.424Z,100.00
2023-10-13T20:38:14.903Z,100.00
2023-10-13T20:40:44.884Z,100.00
2023-10-13T20:43:16.146Z,100.00
2023-10-13T20:45:47.023Z,100.00
2023-10-13T20:48:18.735Z,100.00
2023-10-13T20:50:48.685Z,100.00
2023-10-13T20:53:21.284Z,100.00
2023-10-13T20:56:02.058Z,100.00
2023-10-13T20:58:32.331Z,100.00
2023-10-13T21:01:02.788Z,100.00
2023-10-13T21:03:33.158Z,100.00
2023-10-13T21:06:03.444Z,100.00
2023-10-13T21:08:37.472Z,100.00
2023-10-13T21:11:08.241Z,100.00
2023-10-13T21:13:38.957Z,100.00
2023-10-13T21:16:11.423Z,100.00
2023-10-13T21:18:43.204Z,100.00
2023-10-13T21:21:20.732Z,100.00
2023-10-13T21:23:54.404Z,99.30
2023-10-13T21:26:25.312Z,99.71
2023-10-13T21:28:56.440Z,100.00
2023-10-13T21:31:26.708Z,100.00
2023-10-13T21:33:57.886Z,100.00
2023-10-13T21:36:28.831Z,100.00
2023-10-13T21:39:01.410Z,100.00
2023-10-13T21:41:31.414Z,99.93
2023-10-13T21:44:04.551Z,100.00
2023-10-13T21:46:36.618Z,100.00
2023-10-13T21:49:09.756Z,100.00
2023-10-13T21:51:40.888Z,100.00
2023-10-13T21:54:13.598Z,100.00
2023-10-13T21:56:43.648Z,100.00
2023-10-13T21:59:14.454Z,100.00
2023-10-13T22:01:45.600Z,100.00
2023-10-13T22:04:22.655Z,100.00
2023-10-13T22:06:55.357Z,100.00
2023-10-13T22:09:28.097Z,100.00
2023-10-13T22:11:58.390Z,100.00
2023-10-13T22:14:28.395Z,100.00
2023-10-13T22:16:58.367Z,100.00
2023-10-13T22:19:30.680Z,100.00
2023-10-13T22:22:02.276Z,100.00
2023-10-13T22:24:35.016Z,100.00
2023-10-13T22:27:07.580Z,100.00
2023-10-13T22:29:37.559Z,100.00
2023-10-13T22:32:07.503Z,100.00
2023-10-13T22:34:37.455Z,100.00
2023-10-13T22:37:07.716Z,100.00
2023-10-13T22:39:40.281Z,100.00
2023-10-13T22:42:13.474Z,100.00
2023-10-13T22:44:43.426Z,100.00
2023-10-13T22:47:13.316Z,100.00
2023-10-13T22:49:43.606Z,100.00
2023-10-13T22:52:14.050Z,100.00
2023-10-13T22:54:46.624Z,100.00
2023-10-13T22:57:18.210Z,100.00
2023-10-13T23:40:07.992Z,100.00
2023-10-13T23:43:01.217Z,100.00
2023-10-13T23:45:42.250Z,100.00
2023-10-13T23:51:55.203Z,100.00
2023-10-13T23:54:42.176Z,100.00
2023-10-13T23:57:15.712Z,100.00
2023-10-13T23:59:55.729Z,100.00
